Terminal Aerodrome Forecast
Issued by NWS

Home | Current Version | Previous Version | Text Only | Print | Product List | Glossary On
Versions: 1 2 3 4 5 6 7 8 9 10 11 12 13 14 15
000
FTAK31 PANC 230537
TAFADQ
TAF
PADQ 230537Z 2306/2406 VRB05KT P6SM SCT020 OVC060
      TEMPO 2310/2312 3SM -SN BKN020
     FM231200 11015KT 2SM -SN OVC015
     FM231800 08018G26KT 1SM -SN BLSN OVC008
     FM232100 10015KT 3SM -RASN BR SCT008 OVC015
     FM240000 12010KT 5SM -RA SCT008 OVC015=

USA.gov is the U.S. government's official web portal to all federal, state and local government web resources and services.